sensor_id;sensor_type;location;lat;lon;timestamp;P1;durP1;ratioP1;P2;durP2;ratioP2
43184;SDS011;28803;52.308;19.096;2022-12-24T00:01:19;80.40;;;16.58;;
43184;SDS011;28803;52.308;19.096;2022-12-24T00:03:46;54.78;;;16.15;;
43184;SDS011;28803;52.308;19.096;2022-12-24T00:06:18;60.58;;;17.15;;
43184;SDS011;28803;52.308;19.096;2022-12-24T00:08:47;51.80;;;17.63;;
43184;SDS011;28803;52.308;19.096;2022-12-24T00:11:14;55.90;;;16.15;;
43184;SDS011;28803;52.308;19.096;2022-12-24T00:13:42;56.67;;;14.60;;
43184;SDS011;28803;52.308;19.096;2022-12-24T00:16:09;50.28;;;16.27;;
43184;SDS011;28803;52.308;19.096;2022-12-24T00:18:37;50.75;;;15.80;;
43184;SDS011;28803;52.308;19.096;2022-12-24T00:21:11;52.63;;;15.57;;
43184;SDS011;28803;52.308;19.096;2022-12-24T00:23:39;59.83;;;15.60;;
43184;SDS011;28803;52.308;19.096;2022-12-24T00:26:07;51.67;;;15.52;;
43184;SDS011;28803;52.308;19.096;2022-12-24T00:28:34;49.88;;;15.43;;
43184;SDS011;28803;52.308;19.096;2022-12-24T00:31:08;46.35;;;13.73;;
43184;SDS011;28803;52.308;19.096;2022-12-24T00:33:37;48.50;;;16.15;;
43184;SDS011;28803;52.308;19.096;2022-12-24T00:36:04;68.68;;;17.13;;
43184;SDS011;28803;52.308;19.096;2022-12-24T00:38:32;83.30;;;23.98;;
43184;SDS011;28803;52.308;19.096;2022-12-24T00:41:00;72.57;;;23.50;;
43184;SDS011;28803;52.308;19.096;2022-12-24T00:43:29;87.45;;;22.92;;
43184;SDS011;28803;52.308;19.096;2022-12-24T00:45:57;91.72;;;24.75;;
43184;SDS011;28803;52.308;19.096;2022-12-24T00:48:25;91.93;;;24.50;;
43184;SDS011;28803;52.308;19.096;2022-12-24T00:50:52;86.32;;;23.63;;
43184;SDS011;28803;52.308;19.096;2022-12-24T00:53:19;78.05;;;23.58;;
43184;SDS011;28803;52.308;19.096;2022-12-24T00:55:46;73.03;;;22.23;;
43184;SDS011;28803;52.308;19.096;2022-12-24T00:58:14;108.68;;;27.40;;
43184;SDS011;28803;52.308;19.096;2022-12-24T01:00:41;108.45;;;22.70;;
43184;SDS011;28803;52.308;19.096;2022-12-24T01:03:08;93.30;;;21.67;;
43184;SDS011;28803;52.308;19.096;2022-12-24T01:05:35;59.38;;;16.77;;
43184;SDS011;28803;52.308;19.096;2022-12-24T01:08:03;53.85;;;16.00;;
43184;SDS011;28803;52.308;19.096;2022-12-24T01:10:30;80.72;;;17.92;;
43184;SDS011;28803;52.308;19.096;2022-12-24T01:13:00;65.68;;;17.02;;
43184;SDS011;28803;52.308;19.096;2022-12-24T01:15:28;69.10;;;16.35;;
43184;SDS011;28803;52.308;19.096;2022-12-24T01:17:55;89.07;;;18.45;;
43184;SDS011;28803;52.308;19.096;2022-12-24T01:20:23;51.38;;;15.10;;
43184;SDS011;28803;52.308;19.096;2022-12-24T01:22:52;55.17;;;16.38;;
43184;SDS011;28803;52.308;19.096;2022-12-24T01:25:19;53.83;;;13.48;;
43184;SDS011;28803;52.308;19.096;2022-12-24T01:27:47;70.20;;;15.98;;
43184;SDS011;28803;52.308;19.096;2022-12-24T01:30:14;86.00;;;17.40;;
43184;SDS011;28803;52.308;19.096;2022-12-24T01:32:41;62.60;;;17.63;;
43184;SDS011;28803;52.308;19.096;2022-12-24T01:35:08;61.00;;;16.30;;
43184;SDS011;28803;52.308;19.096;2022-12-24T01:37:36;58.95;;;16.02;;
43184;SDS011;28803;52.308;19.096;2022-12-24T01:40:07;61.13;;;17.00;;
43184;SDS011;28803;52.308;19.096;2022-12-24T01:42:58;60.47;;;15.68;;
43184;SDS011;28803;52.308;19.096;2022-12-24T01:51:07;60.95;;;18.17;;
43184;SDS011;28803;52.308;19.096;2022-12-24T01:53:38;63.33;;;17.20;;
43184;SDS011;28803;52.308;19.096;2022-12-24T01:56:09;69.30;;;17.60;;
43184;SDS011;28803;52.308;19.096;2022-12-24T01:58:39;59.22;;;18.08;;
43184;SDS011;28803;52.308;19.096;2022-12-24T02:01:11;68.82;;;18.23;;
43184;SDS011;28803;52.308;19.096;2022-12-24T02:03:38;70.40;;;17.00;;
43184;SDS011;28803;52.308;19.096;2022-12-24T02:06:06;63.53;;;16.55;;
43184;SDS011;28803;52.308;19.096;2022-12-24T02:08:35;69.65;;;19.50;;
43184;SDS011;28803;52.308;19.096;2022-12-24T02:11:13;76.28;;;21.13;;
43184;SDS011;28803;52.308;19.096;2022-12-24T02:13:47;86.88;;;24.50;;
43184;SDS011;28803;52.308;19.096;2022-12-24T02:30:20;61.92;;;16.13;;
43184;SDS011;28803;52.308;19.096;2022-12-24T02:32:54;60.13;;;14.77;;
43184;SDS011;28803;52.308;19.096;2022-12-24T02:35:42;62.70;;;15.63;;
43184;SDS011;28803;52.308;19.096;2022-12-24T02:38:18;60.17;;;14.20;;
43184;SDS011;28803;52.308;19.096;2022-12-24T02:40:49;67.82;;;16.92;;
43184;SDS011;28803;52.308;19.096;2022-12-24T02:43:24;57.35;;;15.77;;
43184;SDS011;28803;52.308;19.096;2022-12-24T02:45:57;62.15;;;15.68;;
43184;SDS011;28803;52.308;19.096;2022-12-24T02:48:27;74.25;;;16.60;;
43184;SDS011;28803;52.308;19.096;2022-12-24T02:50:57;85.20;;;18.55;;
43184;SDS011;28803;52.308;19.096;2022-12-24T02:53:27;74.65;;;17.33;;
43184;SDS011;28803;52.308;19.096;2022-12-24T02:55:58;75.50;;;16.70;;
43184;SDS011;28803;52.308;19.096;2022-12-24T03:04:15;64.25;;;13.32;;
43184;SDS011;28803;52.308;19.096;2022-12-24T03:12:23;55.38;;;13.30;;
43184;SDS011;28803;52.308;19.096;2022-12-24T03:15:04;55.60;;;14.23;;
43184;SDS011;28803;52.308;19.096;2022-12-24T03:17:35;51.60;;;13.88;;
43184;SDS011;28803;52.308;19.096;2022-12-24T03:20:05;46.90;;;12.20;;
43184;SDS011;28803;52.308;19.096;2022-12-24T03:22:35;63.70;;;12.73;;
43184;SDS011;28803;52.308;19.096;2022-12-24T03:25:04;53.88;;;13.98;;
43184;SDS011;28803;52.308;19.096;2022-12-24T03:27:31;59.80;;;14.48;;
43184;SDS011;28803;52.308;19.096;2022-12-24T03:30:01;59.40;;;13.32;;
43184;SDS011;28803;52.308;19.096;2022-12-24T03:32:31;49.28;;;13.18;;
43184;SDS011;28803;52.308;19.096;2022-12-24T03:34:58;67.57;;;14.60;;
43184;SDS011;28803;52.308;19.096;2022-12-24T03:37:26;64.53;;;12.95;;
43184;SDS011;28803;52.308;19.096;2022-12-24T03:39:53;64.32;;;13.23;;
43184;SDS011;28803;52.308;19.096;2022-12-24T03:42:20;54.55;;;13.57;;
43184;SDS011;28803;52.308;19.096;2022-12-24T03:44:47;54.17;;;11.95;;
43184;SDS011;28803;52.308;19.096;2022-12-24T03:47:15;45.90;;;14.50;;
43184;SDS011;28803;52.308;19.096;2022-12-24T03:49:42;51.72;;;12.13;;
43184;SDS011;28803;52.308;19.096;2022-12-24T03:52:09;55.47;;;11.45;;
43184;SDS011;28803;52.308;19.096;2022-12-24T03:54:36;53.10;;;12.93;;
43184;SDS011;28803;52.308;19.096;2022-12-24T03:57:03;52.42;;;12.20;;
43184;SDS011;28803;52.308;19.096;2022-12-24T03:59:30;43.05;;;9.85;;
43184;SDS011;28803;52.308;19.096;2022-12-24T04:01:58;38.35;;;9.80;;
43184;SDS011;28803;52.308;19.096;2022-12-24T04:04:25;44.60;;;10.80;;
43184;SDS011;28803;52.308;19.096;2022-12-24T04:06:53;36.13;;;9.70;;
43184;SDS011;28803;52.308;19.096;2022-12-24T04:09:20;32.35;;;9.25;;
43184;SDS011;28803;52.308;19.096;2022-12-24T04:11:47;28.90;;;8.68;;
43184;SDS011;28803;52.308;19.096;2022-12-24T04:14:14;32.65;;;9.90;;
43184;SDS011;28803;52.308;19.096;2022-12-24T04:16:41;33.65;;;9.68;;
43184;SDS011;28803;52.308;19.096;2022-12-24T04:19:08;32.05;;;9.95;;
43184;SDS011;28803;52.308;19.096;2022-12-24T04:21:36;30.17;;;9.90;;
43184;SDS011;28803;52.308;19.096;2022-12-24T04:24:03;27.13;;;9.43;;
43184;SDS011;28803;52.308;19.096;2022-12-24T04:26:30;28.90;;;9.63;;
43184;SDS011;28803;52.308;19.096;2022-12-24T04:28:57;23.08;;;8.80;;
43184;SDS011;28803;52.308;19.096;2022-12-24T04:31:24;22.67;;;8.90;;
43184;SDS011;28803;52.308;19.096;2022-12-24T04:33:51;27.25;;;9.70;;
43184;SDS011;28803;52.308;19.096;2022-12-24T04:36:19;23.80;;;8.68;;
43184;SDS011;28803;52.308;19.096;2022-12-24T04:38:46;33.53;;;8.90;;
43184;SDS011;28803;52.308;19.096;2022-12-24T04:41:15;25.50;;;8.15;;
43184;SDS011;28803;52.308;19.096;2022-12-24T04:43:49;29.58;;;9.45;;
43184;SDS011;28803;52.308;19.096;2022-12-24T04:46:22;23.08;;;9.10;;
43184;SDS011;28803;52.308;19.096;2022-12-24T04:51:20;27.17;;;9.07;;
43184;SDS011;28803;52.308;19.096;2022-12-24T04:53:48;24.55;;;10.13;;
43184;SDS011;28803;52.308;19.096;2022-12-24T04:56:16;28.40;;;9.90;;
43184;SDS011;28803;52.308;19.096;2022-12-24T04:58:51;24.48;;;8.35;;
43184;SDS011;28803;52.308;19.096;2022-12-24T05:01:22;27.63;;;9.32;;
43184;SDS011;28803;52.308;19.096;2022-12-24T05:03:52;23.67;;;9.07;;
43184;SDS011;28803;52.308;19.096;2022-12-24T05:06:24;33.58;;;10.32;;
43184;SDS011;28803;52.308;19.096;2022-12-24T05:08:53;25.13;;;9.88;;
43184;SDS011;28803;52.308;19.096;2022-12-24T05:11:22;32.05;;;11.40;;
43184;SDS011;28803;52.308;19.096;2022-12-24T05:13:50;26.67;;;10.85;;
43184;SDS011;28803;52.308;19.096;2022-12-24T05:16:18;30.33;;;9.98;;
43184;SDS011;28803;52.308;19.096;2022-12-24T05:18:47;25.25;;;10.68;;
43184;SDS011;28803;52.308;19.096;2022-12-24T05:21:16;35.17;;;10.10;;
43184;SDS011;28803;52.308;19.096;2022-12-24T05:23:44;32.60;;;10.00;;
43184;SDS011;28803;52.308;19.096;2022-12-24T05:26:35;32.17;;;9.80;;
43184;SDS011;28803;52.308;19.096;2022-12-24T05:29:07;42.13;;;11.70;;
43184;SDS011;28803;52.308;19.096;2022-12-24T05:31:35;29.40;;;9.35;;
43184;SDS011;28803;52.308;19.096;2022-12-24T05:34:02;36.20;;;10.13;;
43184;SDS011;28803;52.308;19.096;2022-12-24T05:36:30;32.75;;;10.05;;
43184;SDS011;28803;52.308;19.096;2022-12-24T05:38:57;26.88;;;9.95;;
43184;SDS011;28803;52.308;19.096;2022-12-24T05:41:24;23.95;;;9.60;;
43184;SDS011;28803;52.308;19.096;2022-12-24T05:43:51;33.38;;;9.80;;
43184;SDS011;28803;52.308;19.096;2022-12-24T05:46:19;31.90;;;11.05;;
43184;SDS011;28803;52.308;19.096;2022-12-24T05:48:48;30.00;;;10.60;;
43184;SDS011;28803;52.308;19.096;2022-12-24T05:51:17;42.63;;;13.02;;
43184;SDS011;28803;52.308;19.096;2022-12-24T05:53:45;32.33;;;11.68;;
43184;SDS011;28803;52.308;19.096;2022-12-24T05:56:15;36.72;;;11.38;;
43184;SDS011;28803;52.308;19.096;2022-12-24T05:58:44;34.75;;;12.13;;
43184;SDS011;28803;52.308;19.096;2022-12-24T06:01:12;40.53;;;12.00;;
43184;SDS011;28803;52.308;19.096;2022-12-24T06:03:40;36.22;;;11.25;;
43184;SDS011;28803;52.308;19.096;2022-12-24T06:06:11;43.60;;;11.55;;
43184;SDS011;28803;52.308;19.096;2022-12-24T06:08:40;36.47;;;12.85;;
43184;SDS011;28803;52.308;19.096;2022-12-24T06:11:09;42.95;;;12.75;;
43184;SDS011;28803;52.308;19.096;2022-12-24T06:13:38;39.35;;;12.20;;
43184;SDS011;28803;52.308;19.096;2022-12-24T06:16:07;34.63;;;11.85;;
43184;SDS011;28803;52.308;19.096;2022-12-24T06:18:37;42.17;;;12.93;;
43184;SDS011;28803;52.308;19.096;2022-12-24T06:21:04;38.47;;;12.18;;
43184;SDS011;28803;52.308;19.096;2022-12-24T06:23:33;45.85;;;13.50;;
43184;SDS011;28803;52.308;19.096;2022-12-24T06:26:01;42.67;;;13.27;;
43184;SDS011;28803;52.308;19.096;2022-12-24T06:28:30;46.20;;;13.55;;
43184;SDS011;28803;52.308;19.096;2022-12-24T06:31:00;43.42;;;13.60;;
43184;SDS011;28803;52.308;19.096;2022-12-24T06:33:29;44.22;;;14.10;;
43184;SDS011;28803;52.308;19.096;2022-12-24T06:35:58;46.70;;;13.88;;
43184;SDS011;28803;52.308;19.096;2022-12-24T06:38:25;47.67;;;12.93;;
43184;SDS011;28803;52.308;19.096;2022-12-24T06:40:55;56.65;;;16.63;;
43184;SDS011;28803;52.308;19.096;2022-12-24T06:43:22;52.15;;;14.07;;
43184;SDS011;28803;52.308;19.096;2022-12-24T06:45:49;59.22;;;14.57;;
43184;SDS011;28803;52.308;19.096;2022-12-24T06:48:16;56.75;;;15.57;;
43184;SDS011;28803;52.308;19.096;2022-12-24T06:50:44;58.47;;;14.68;;
43184;SDS011;28803;52.308;19.096;2022-12-24T06:53:11;45.90;;;15.38;;
43184;SDS011;28803;52.308;19.096;2022-12-24T06:55:38;45.88;;;14.88;;
43184;SDS011;28803;52.308;19.096;2022-12-24T06:58:05;54.67;;;13.07;;
43184;SDS011;28803;52.308;19.096;2022-12-24T07:00:33;46.13;;;12.90;;
43184;SDS011;28803;52.308;19.096;2022-12-24T07:03:00;44.78;;;12.48;;
43184;SDS011;28803;52.308;19.096;2022-12-24T07:05:28;36.10;;;11.20;;
43184;SDS011;28803;52.308;19.096;2022-12-24T07:07:55;38.80;;;12.05;;
43184;SDS011;28803;52.308;19.096;2022-12-24T07:10:23;36.95;;;12.32;;
43184;SDS011;28803;52.308;19.096;2022-12-24T07:12:50;42.70;;;12.23;;
43184;SDS011;28803;52.308;19.096;2022-12-24T07:15:18;45.20;;;12.75;;
43184;SDS011;28803;52.308;19.096;2022-12-24T07:17:45;49.38;;;13.60;;
43184;SDS011;28803;52.308;19.096;2022-12-24T07:20:13;38.13;;;11.50;;
43184;SDS011;28803;52.308;19.096;2022-12-24T07:22:40;42.58;;;11.38;;
43184;SDS011;28803;52.308;19.096;2022-12-24T07:25:09;41.85;;;10.98;;
43184;SDS011;28803;52.308;19.096;2022-12-24T07:27:36;37.28;;;10.60;;
43184;SDS011;28803;52.308;19.096;2022-12-24T07:30:04;39.47;;;11.68;;
43184;SDS011;28803;52.308;19.096;2022-12-24T07:32:32;43.85;;;11.77;;
43184;SDS011;28803;52.308;19.096;2022-12-24T07:35:00;47.70;;;12.65;;
43184;SDS011;28803;52.308;19.096;2022-12-24T07:37:27;45.15;;;12.38;;
43184;SDS011;28803;52.308;19.096;2022-12-24T07:39:54;43.45;;;12.40;;
43184;SDS011;28803;52.308;19.096;2022-12-24T07:42:21;45.45;;;13.77;;
43184;SDS011;28803;52.308;19.096;2022-12-24T07:44:49;50.25;;;14.15;;
43184;SDS011;28803;52.308;19.096;2022-12-24T07:47:16;59.50;;;14.85;;
43184;SDS011;28803;52.308;19.096;2022-12-24T07:49:43;56.83;;;14.23;;
43184;SDS011;28803;52.308;19.096;2022-12-24T07:52:10;56.83;;;14.65;;
43184;SDS011;28803;52.308;19.096;2022-12-24T07:54:38;57.13;;;15.23;;
43184;SDS011;28803;52.308;19.096;2022-12-24T07:57:05;54.45;;;15.55;;
43184;SDS011;28803;52.308;19.096;2022-12-24T07:59:32;65.50;;;15.27;;
43184;SDS011;28803;52.308;19.096;2022-12-24T08:01:59;54.03;;;15.52;;
43184;SDS011;28803;52.308;19.096;2022-12-24T08:04:29;63.15;;;16.58;;
43184;SDS011;28803;52.308;19.096;2022-12-24T08:06:57;78.50;;;17.08;;
43184;SDS011;28803;52.308;19.096;2022-12-24T08:09:25;62.85;;;16.67;;
43184;SDS011;28803;52.308;19.096;2022-12-24T08:11:52;56.10;;;15.52;;
43184;SDS011;28803;52.308;19.096;2022-12-24T08:14:19;57.45;;;16.23;;
43184;SDS011;28803;52.308;19.096;2022-12-24T08:16:46;60.30;;;16.55;;
43184;SDS011;28803;52.308;19.096;2022-12-24T08:19:15;58.65;;;14.93;;
43184;SDS011;28803;52.308;19.096;2022-12-24T08:21:42;60.42;;;17.30;;
43184;SDS011;28803;52.308;19.096;2022-12-24T08:24:09;62.08;;;17.10;;
43184;SDS011;28803;52.308;19.096;2022-12-24T08:26:36;59.45;;;15.57;;
43184;SDS011;28803;52.308;19.096;2022-12-24T08:29:04;54.65;;;14.98;;
43184;SDS011;28803;52.308;19.096;2022-12-24T08:31:31;51.17;;;15.77;;
43184;SDS011;28803;52.308;19.096;2022-12-24T08:34:03;64.15;;;15.35;;
43184;SDS011;28803;52.308;19.096;2022-12-24T08:36:31;52.83;;;13.18;;
43184;SDS011;28803;52.308;19.096;2022-12-24T08:39:00;58.28;;;15.60;;
43184;SDS011;28803;52.308;19.096;2022-12-24T08:41:30;63.92;;;14.05;;
43184;SDS011;28803;52.308;19.096;2022-12-24T08:43:58;60.85;;;16.13;;
43184;SDS011;28803;52.308;19.096;2022-12-24T08:46:25;56.58;;;15.40;;
43184;SDS011;28803;52.308;19.096;2022-12-24T08:48:53;56.83;;;15.23;;
43184;SDS011;28803;52.308;19.096;2022-12-24T08:51:20;54.17;;;14.63;;
43184;SDS011;28803;52.308;19.096;2022-12-24T08:53:47;64.53;;;16.67;;
43184;SDS011;28803;52.308;19.096;2022-12-24T08:56:14;63.13;;;17.50;;
43184;SDS011;28803;52.308;19.096;2022-12-24T08:58:42;66.35;;;17.38;;
43184;SDS011;28803;52.308;19.096;2022-12-24T09:01:13;67.53;;;19.08;;
43184;SDS011;28803;52.308;19.096;2022-12-24T09:03:43;71.95;;;17.38;;
43184;SDS011;28803;52.308;19.096;2022-12-24T09:06:12;81.03;;;19.20;;
43184;SDS011;28803;52.308;19.096;2022-12-24T09:08:40;84.60;;;18.30;;
43184;SDS011;28803;52.308;19.096;2022-12-24T09:11:12;70.68;;;17.38;;
43184;SDS011;28803;52.308;19.096;2022-12-24T09:13:41;64.13;;;16.45;;
43184;SDS011;28803;52.308;19.096;2022-12-24T09:16:09;65.07;;;18.75;;
43184;SDS011;28803;52.308;19.096;2022-12-24T09:18:38;78.10;;;19.13;;
43184;SDS011;28803;52.308;19.096;2022-12-24T09:21:06;65.50;;;15.05;;
43184;SDS011;28803;52.308;19.096;2022-12-24T09:23:37;64.90;;;17.15;;
43184;SDS011;28803;52.308;19.096;2022-12-24T09:26:08;69.72;;;17.50;;
43184;SDS011;28803;52.308;19.096;2022-12-24T09:28:45;65.07;;;17.48;;
43184;SDS011;28803;52.308;19.096;2022-12-24T09:31:12;73.22;;;18.55;;
43184;SDS011;28803;52.308;19.096;2022-12-24T09:33:41;64.97;;;16.45;;
43184;SDS011;28803;52.308;19.096;2022-12-24T09:36:09;85.15;;;19.60;;
43184;SDS011;28803;52.308;19.096;2022-12-24T09:38:37;69.95;;;17.98;;
43184;SDS011;28803;52.308;19.096;2022-12-24T09:44:07;75.22;;;18.38;;
43184;SDS011;28803;52.308;19.096;2022-12-24T09:46:45;68.22;;;18.50;;
43184;SDS011;28803;52.308;19.096;2022-12-24T09:49:16;73.97;;;17.75;;
43184;SDS011;28803;52.308;19.096;2022-12-24T09:51:52;71.80;;;19.55;;
43184;SDS011;28803;52.308;19.096;2022-12-24T09:54:27;70.70;;;17.80;;
43184;SDS011;28803;52.308;19.096;2022-12-24T09:56:59;55.38;;;16.33;;
43184;SDS011;28803;52.308;19.096;2022-12-24T09:59:40;65.25;;;17.38;;
43184;SDS011;28803;52.308;19.096;2022-12-24T10:02:13;63.53;;;17.33;;
43184;SDS011;28803;52.308;19.096;2022-12-24T10:04:44;78.07;;;18.08;;
43184;SDS011;28803;52.308;19.096;2022-12-24T10:07:21;57.42;;;16.63;;
43184;SDS011;28803;52.308;19.096;2022-12-24T10:12:53;77.85;;;17.70;;
43184;SDS011;28803;52.308;19.096;2022-12-24T10:15:32;71.45;;;18.67;;
43184;SDS011;28803;52.308;19.096;2022-12-24T10:24:28;82.30;;;18.10;;
43184;SDS011;28803;52.308;19.096;2022-12-24T10:27:20;68.22;;;18.05;;
43184;SDS011;28803;52.308;19.096;2022-12-24T10:29:56;78.40;;;18.50;;
43184;SDS011;28803;52.308;19.096;2022-12-24T10:32:28;80.00;;;18.80;;
43184;SDS011;28803;52.308;19.096;2022-12-24T10:34:59;65.43;;;18.92;;
43184;SDS011;28803;52.308;19.096;2022-12-24T10:37:48;76.97;;;17.15;;
43184;SDS011;28803;52.308;19.096;2022-12-24T10:42:54;74.65;;;19.55;;
43184;SDS011;28803;52.308;19.096;2022-12-24T10:45:21;74.93;;;20.02;;
43184;SDS011;28803;52.308;19.096;2022-12-24T10:47:53;68.97;;;18.48;;
43184;SDS011;28803;52.308;19.096;2022-12-24T10:50:28;83.97;;;18.85;;
43184;SDS011;28803;52.308;19.096;2022-12-24T10:53:17;79.55;;;20.13;;
43184;SDS011;28803;52.308;19.096;2022-12-24T10:56:03;65.30;;;17.55;;
43184;SDS011;28803;52.308;19.096;2022-12-24T10:58:32;74.07;;;18.92;;
43184;SDS011;28803;52.308;19.096;2022-12-24T11:01:00;69.93;;;19.40;;
43184;SDS011;28803;52.308;19.096;2022-12-24T11:03:29;76.63;;;19.33;;
43184;SDS011;28803;52.308;19.096;2022-12-24T11:06:19;58.42;;;18.83;;
43184;SDS011;28803;52.308;19.096;2022-12-24T11:08:48;63.80;;;18.55;;
43184;SDS011;28803;52.308;19.096;2022-12-24T11:11:16;76.53;;;20.35;;
43184;SDS011;28803;52.308;19.096;2022-12-24T11:16:20;73.82;;;21.10;;
43184;SDS011;28803;52.308;19.096;2022-12-24T11:19:00;61.00;;;20.02;;
43184;SDS011;28803;52.308;19.096;2022-12-24T11:21:31;63.28;;;18.67;;
43184;SDS011;28803;52.308;19.096;2022-12-24T11:26:43;58.30;;;16.50;;
43184;SDS011;28803;52.308;19.096;2022-12-24T11:29:12;56.92;;;16.55;;
43184;SDS011;28803;52.308;19.096;2022-12-24T11:31:43;55.85;;;15.10;;
43184;SDS011;28803;52.308;19.096;2022-12-24T11:34:20;51.88;;;16.08;;
43184;SDS011;28803;52.308;19.096;2022-12-24T11:36:50;59.90;;;17.42;;
43184;SDS011;28803;52.308;19.096;2022-12-24T11:39:20;63.08;;;17.70;;
43184;SDS011;28803;52.308;19.096;2022-12-24T11:41:51;63.35;;;19.17;;
43184;SDS011;28803;52.308;19.096;2022-12-24T11:44:26;50.55;;;17.15;;
43184;SDS011;28803;52.308;19.096;2022-12-24T11:46:54;46.53;;;16.67;;
43184;SDS011;28803;52.308;19.096;2022-12-24T11:49:26;52.22;;;18.67;;
43184;SDS011;28803;52.308;19.096;2022-12-24T12:00:28;56.47;;;18.90;;
43184;SDS011;28803;52.308;19.096;2022-12-24T12:02:56;52.42;;;18.77;;
43184;SDS011;28803;52.308;19.096;2022-12-24T12:05:29;48.78;;;17.02;;
43184;SDS011;28803;52.308;19.096;2022-12-24T12:08:03;55.80;;;17.45;;
43184;SDS011;28803;52.308;19.096;2022-12-24T12:10:41;45.17;;;16.48;;
43184;SDS011;28803;52.308;19.096;2022-12-24T12:13:13;42.63;;;15.43;;
43184;SDS011;28803;52.308;19.096;2022-12-24T12:16:03;48.90;;;15.77;;
43184;SDS011;28803;52.308;19.096;2022-12-24T12:18:48;48.72;;;14.80;;
43184;SDS011;28803;52.308;19.096;2022-12-24T12:21:31;39.50;;;14.60;;
43184;SDS011;28803;52.308;19.096;2022-12-24T12:24:06;41.75;;;13.85;;
43184;SDS011;28803;52.308;19.096;2022-12-24T12:26:45;34.28;;;13.23;;
43184;SDS011;28803;52.308;19.096;2022-12-24T12:29:28;39.92;;;15.35;;
43184;SDS011;28803;52.308;19.096;2022-12-24T12:32:05;39.28;;;14.10;;
43184;SDS011;28803;52.308;19.096;2022-12-24T12:34:40;38.30;;;15.63;;
43184;SDS011;28803;52.308;19.096;2022-12-24T12:37:30;37.00;;;13.90;;
43184;SDS011;28803;52.308;19.096;2022-12-24T12:40:02;41.85;;;14.45;;
43184;SDS011;28803;52.308;19.096;2022-12-24T12:42:37;35.88;;;14.52;;
43184;SDS011;28803;52.308;19.096;2022-12-24T12:51:49;33.72;;;14.75;;
43184;SDS011;28803;52.308;19.096;2022-12-24T12:57:07;41.38;;;15.38;;
43184;SDS011;28803;52.308;19.096;2022-12-24T12:59:40;35.00;;;13.52;;
43184;SDS011;28803;52.308;19.096;2022-12-24T13:22:12;37.67;;;13.38;;
43184;SDS011;28803;52.308;19.096;2022-12-24T13:24:51;35.47;;;15.25;;
43184;SDS011;28803;52.308;19.096;2022-12-24T13:29:58;32.33;;;14.43;;
43184;SDS011;28803;52.308;19.096;2022-12-24T13:32:48;33.28;;;14.35;;
43184;SDS011;28803;52.308;19.096;2022-12-24T13:37:47;36.08;;;15.88;;
43184;SDS011;28803;52.308;19.096;2022-12-24T13:42:50;30.52;;;12.63;;
43184;SDS011;28803;52.308;19.096;2022-12-24T13:50:37;26.70;;;12.00;;
43184;SDS011;28803;52.308;19.096;2022-12-24T13:55:53;27.05;;;11.75;;
43184;SDS011;28803;52.308;19.096;2022-12-24T13:58:22;26.30;;;12.30;;
43184;SDS011;28803;52.308;19.096;2022-12-24T14:00:52;30.92;;;13.23;;
43184;SDS011;28803;52.308;19.096;2022-12-24T14:06:20;22.35;;;11.57;;
43184;SDS011;28803;52.308;19.096;2022-12-24T14:08:49;29.67;;;11.25;;
43184;SDS011;28803;52.308;19.096;2022-12-24T14:11:21;28.90;;;11.85;;
43184;SDS011;28803;52.308;19.096;2022-12-24T14:13:51;31.77;;;13.57;;
43184;SDS011;28803;52.308;19.096;2022-12-24T14:21:43;37.47;;;17.52;;
43184;SDS011;28803;52.308;19.096;2022-12-24T14:25:00;46.03;;;19.42;;
43184;SDS011;28803;52.308;19.096;2022-12-24T14:27:13;34.05;;;17.38;;
43184;SDS011;28803;52.308;19.096;2022-12-24T14:29:51;41.70;;;18.42;;
43184;SDS011;28803;52.308;19.096;2022-12-24T14:32:41;40.38;;;17.85;;
43184;SDS011;28803;52.308;19.096;2022-12-24T14:35:16;47.58;;;19.40;;
43184;SDS011;28803;52.308;19.096;2022-12-24T14:37:56;38.90;;;16.92;;
43184;SDS011;28803;52.308;19.096;2022-12-24T14:43:27;39.92;;;16.48;;
43184;SDS011;28803;52.308;19.096;2022-12-24T14:48:57;44.50;;;18.23;;
43184;SDS011;28803;52.308;19.096;2022-12-24T14:52:23;42.53;;;18.80;;
43184;SDS011;28803;52.308;19.096;2022-12-24T15:00:54;45.38;;;17.63;;
43184;SDS011;28803;52.308;19.096;2022-12-24T15:03:24;38.70;;;16.33;;
43184;SDS011;28803;52.308;19.096;2022-12-24T15:05:54;38.10;;;17.48;;
43184;SDS011;28803;52.308;19.096;2022-12-24T15:08:29;40.40;;;18.42;;
43184;SDS011;28803;52.308;19.096;2022-12-24T15:11:06;37.03;;;17.27;;
43184;SDS011;28803;52.308;19.096;2022-12-24T15:16:06;46.75;;;18.70;;
43184;SDS011;28803;52.308;19.096;2022-12-24T15:18:47;42.17;;;18.07;;
43184;SDS011;28803;52.308;19.096;2022-12-24T15:21:24;39.65;;;17.35;;
43184;SDS011;28803;52.308;19.096;2022-12-24T15:23:56;36.40;;;17.60;;
43184;SDS011;28803;52.308;19.096;2022-12-24T15:26:27;38.70;;;16.05;;
43184;SDS011;28803;52.308;19.096;2022-12-24T15:28:57;39.67;;;17.67;;
43184;SDS011;28803;52.308;19.096;2022-12-24T15:31:29;44.13;;;18.50;;
43184;SDS011;28803;52.308;19.096;2022-12-24T15:33:58;37.28;;;17.25;;
43184;SDS011;28803;52.308;19.096;2022-12-24T15:38:55;39.72;;;18.33;;
43184;SDS011;28803;52.308;19.096;2022-12-24T15:41:25;37.03;;;17.02;;
43184;SDS011;28803;52.308;19.096;2022-12-24T15:44:00;38.45;;;17.17;;
43184;SDS011;28803;52.308;19.096;2022-12-24T15:46:29;34.40;;;16.65;;
43184;SDS011;28803;52.308;19.096;2022-12-24T15:48:59;42.38;;;18.38;;
43184;SDS011;28803;52.308;19.096;2022-12-24T15:51:31;40.17;;;17.58;;
43184;SDS011;28803;52.308;19.096;2022-12-24T15:54:14;42.53;;;18.00;;
43184;SDS011;28803;52.308;19.096;2022-12-24T15:56:45;33.95;;;16.52;;
43184;SDS011;28803;52.308;19.096;2022-12-24T16:01:41;30.90;;;15.75;;
43184;SDS011;28803;52.308;19.096;2022-12-24T16:04:13;37.88;;;15.88;;
43184;SDS011;28803;52.308;19.096;2022-12-24T16:06:51;33.50;;;16.23;;
43184;SDS011;28803;52.308;19.096;2022-12-24T16:09:28;35.58;;;15.05;;
43184;SDS011;28803;52.308;19.096;2022-12-24T16:11:55;31.15;;;14.55;;
43184;SDS011;28803;52.308;19.096;2022-12-24T16:16:56;35.95;;;15.57;;
43184;SDS011;28803;52.308;19.096;2022-12-24T16:19:28;36.28;;;16.02;;
43184;SDS011;28803;52.308;19.096;2022-12-24T16:22:05;32.70;;;15.75;;
43184;SDS011;28803;52.308;19.096;2022-12-24T16:24:52;33.28;;;16.05;;
43184;SDS011;28803;52.308;19.096;2022-12-24T16:27:21;26.67;;;13.52;;
43184;SDS011;28803;52.308;19.096;2022-12-24T16:29:48;32.25;;;15.90;;
43184;SDS011;28803;52.308;19.096;2022-12-24T16:34:58;30.75;;;15.25;;
43184;SDS011;28803;52.308;19.096;2022-12-24T16:37:26;31.00;;;15.13;;
43184;SDS011;28803;52.308;19.096;2022-12-24T16:39:54;30.52;;;15.18;;
43184;SDS011;28803;52.308;19.096;2022-12-24T16:42:22;35.08;;;16.85;;
43184;SDS011;28803;52.308;19.096;2022-12-24T16:45:08;30.65;;;14.68;;
43184;SDS011;28803;52.308;19.096;2022-12-24T16:47:36;36.90;;;16.65;;
43184;SDS011;28803;52.308;19.096;2022-12-24T16:50:10;31.15;;;14.93;;
43184;SDS011;28803;52.308;19.096;2022-12-24T16:52:41;35.07;;;16.20;;